createdAt,value
2022-10-03T00:02:29.773Z,2.80
2022-10-03T00:05:33.222Z,2.70
2022-10-03T00:08:49.638Z,3.40
2022-10-03T00:11:43.926Z,2.70
2022-10-03T00:14:52.539Z,2.70
2022-10-03T00:17:41.610Z,2.60
2022-10-03T00:20:49.107Z,2.60
2022-10-03T00:23:36.927Z,3.10
2022-10-03T00:26:31.889Z,2.20
2022-10-03T00:29:19.879Z,3.20
2022-10-03T00:31:59.926Z,2.00
2022-10-03T00:34:50.944Z,2.50
2022-10-03T00:37:41.036Z,2.50
2022-10-03T00:40:35.604Z,2.30
2022-10-03T00:43:17.421Z,2.90
2022-10-03T00:45:57.846Z,2.30
2022-10-03T00:51:33.494Z,2.40
2022-10-03T00:54:10.751Z,2.70
2022-10-03T00:56:53.661Z,2.40
2022-10-03T00:59:51.692Z,2.40
2022-10-03T01:02:54.745Z,2.60
2022-10-03T01:05:47.526Z,2.90
2022-10-03T01:08:57.776Z,2.30
2022-10-03T01:12:22.584Z,2.50
2022-10-03T01:15:15.009Z,2.40
2022-10-03T01:18:21.582Z,2.40
2022-10-03T01:21:23.970Z,2.40
2022-10-03T01:24:17.780Z,2.30
2022-10-03T01:27:13.375Z,2.20
2022-10-03T01:30:15.602Z,2.40
2022-10-03T01:33:10.012Z,2.50
2022-10-03T01:35:48.742Z,2.30
2022-10-03T01:38:24.847Z,2.10
2022-10-03T01:41:24.199Z,2.50
2022-10-03T01:44:00.747Z,2.30
2022-10-03T01:46:53.893Z,2.70
2022-10-03T01:49:40.944Z,2.50
2022-10-03T01:52:35.560Z,2.30
2022-10-03T01:55:22.693Z,2.20
2022-10-03T01:57:56.816Z,2.20
2022-10-03T02:00:25.423Z,2.20
2022-10-03T02:03:21.834Z,2.80
2022-10-03T02:06:18.674Z,2.40
2022-10-03T02:09:15.971Z,2.10
2022-10-03T02:11:49.514Z,2.20
2022-10-03T02:14:25.421Z,2.20
2022-10-03T02:17:03.330Z,2.40
2022-10-03T02:19:59.972Z,2.80
2022-10-03T02:22:35.519Z,2.20
2022-10-03T02:25:20.700Z,2.40
2022-10-03T02:27:50.706Z,2.20
2022-10-03T02:30:54.412Z,2.20
2022-10-03T02:33:58.108Z,2.30
2022-10-03T02:37:18.905Z,2.70
2022-10-03T02:40:19.641Z,2.20
2022-10-03T02:43:22.666Z,2.50
2022-10-03T02:46:32.813Z,2.30
2022-10-03T02:49:20.716Z,2.70
2022-10-03T02:52:07.479Z,1.90
2022-10-03T02:55:25.142Z,2.50
2022-10-03T02:58:27.925Z,2.30
2022-10-03T03:01:55.011Z,2.10
2022-10-03T03:05:19.188Z,2.50
2022-10-03T03:08:35.133Z,2.70
2022-10-03T03:11:29.709Z,2.30
2022-10-03T03:14:38.274Z,3.90
2022-10-03T03:17:34.574Z,2.80
2022-10-03T03:20:15.885Z,3.00
2022-10-03T03:22:59.650Z,2.60
2022-10-03T03:25:44.466Z,2.50
2022-10-03T03:28:55.789Z,2.10
2022-10-03T03:31:54.049Z,2.10
2022-10-03T03:35:09.355Z,2.80
2022-10-03T03:38:07.847Z,2.30
2022-10-03T03:41:02.420Z,2.40
2022-10-03T03:43:56.788Z,2.90
2022-10-03T03:46:32.002Z,2.70
2022-10-03T03:49:18.472Z,2.60
2022-10-03T03:52:03.021Z,2.30
2022-10-03T03:54:39.800Z,2.40
2022-10-03T03:57:54.841Z,2.80
2022-10-03T04:00:30.882Z,2.80
2022-10-03T04:03:46.765Z,2.80
2022-10-03T04:06:43.041Z,2.40
2022-10-03T04:09:24.363Z,2.20
2022-10-03T04:12:10.242Z,2.50
2022-10-03T04:15:03.020Z,2.30
2022-10-03T04:18:00.248Z,2.30
2022-10-03T04:20:59.304Z,2.50
2022-10-03T04:24:12.984Z,2.30
2022-10-03T04:27:26.913Z,2.30
2022-10-03T04:30:23.114Z,2.50
2022-10-03T04:33:08.697Z,1.80
2022-10-03T04:35:56.590Z,2.20
2022-10-03T04:39:10.309Z,2.10
2022-10-03T04:41:52.641Z,1.90
2022-10-03T04:45:15.698Z,2.10
2022-10-03T04:48:01.305Z,2.30
2022-10-03T04:50:57.208Z,2.50
2022-10-03T04:53:39.327Z,2.10
2022-10-03T04:56:26.223Z,2.10
2022-10-03T04:59:00.363Z,2.10
2022-10-03T05:02:17.370Z,2.30
2022-10-03T05:05:26.676Z,1.90
2022-10-03T05:08:28.949Z,2.00
2022-10-03T05:11:21.026Z,2.00
2022-10-03T05:14:27.759Z,2.40
2022-10-03T05:17:06.786Z,2.40
2022-10-03T05:19:51.141Z,3.20
2022-10-03T05:23:02.016Z,2.20
2022-10-03T05:26:45.728Z,2.70
2022-10-03T05:29:24.695Z,3.00
2022-10-03T05:32:10.321Z,2.70
2022-10-03T05:35:17.241Z,2.40
2022-10-03T05:38:26.547Z,2.70
2022-10-03T05:40:59.117Z,3.70
2022-10-03T05:43:44.339Z,2.30
2022-10-03T05:46:22.271Z,2.70
2022-10-03T05:49:42.406Z,2.20
2022-10-03T05:52:38.588Z,2.90
2022-10-03T05:55:29.083Z,2.10
2022-10-03T05:58:24.920Z,2.60
2022-10-03T06:01:30.414Z,1.80
2022-10-03T06:04:15.567Z,2.30
2022-10-03T06:06:50.741Z,2.20
2022-10-03T06:09:37.239Z,1.90
2022-10-03T06:12:29.009Z,2.00
2022-10-03T06:15:17.445Z,3.20
2022-10-03T06:17:55.303Z,2.00
2022-10-03T06:20:46.352Z,2.00
2022-10-03T06:23:37.348Z,2.90
2022-10-03T06:27:04.817Z,2.00
2022-10-03T06:29:56.074Z,2.10
2022-10-03T06:32:31.546Z,1.80
2022-10-03T06:35:06.844Z,2.20
2022-10-03T06:38:03.235Z,2.00
2022-10-03T06:40:54.743Z,1.70
2022-10-03T06:43:44.135Z,2.10
2022-10-03T06:46:19.015Z,2.40
2022-10-03T06:49:00.755Z,2.20
2022-10-03T06:51:35.079Z,1.70
2022-10-03T06:54:23.634Z,2.00
2022-10-03T06:57:58.623Z,1.80
2022-10-03T07:01:11.603Z,2.20
2022-10-03T07:03:56.430Z,1.50
2022-10-03T07:06:38.725Z,1.70
2022-10-03T07:09:32.501Z,2.00
2022-10-03T07:12:33.414Z,2.00
2022-10-03T07:15:13.008Z,2.30
2022-10-03T07:18:27.366Z,1.50
2022-10-03T07:21:30.594Z,2.50
2022-10-03T07:24:16.292Z,1.80
2022-10-03T07:27:01.409Z,1.70
2022-10-03T07:30:04.442Z,2.00
2022-10-03T07:32:58.289Z,1.90
2022-10-03T07:36:45.242Z,1.90
2022-10-03T07:39:42.699Z,2.30
2022-10-03T07:42:11.817Z,1.80
2022-10-03T07:45:18.632Z,1.60
2022-10-03T07:48:26.914Z,1.70
2022-10-03T07:51:12.087Z,1.60
2022-10-03T07:54:24.199Z,1.90
2022-10-03T07:57:37.375Z,2.30
2022-10-03T08:00:12.336Z,1.60
2022-10-03T08:03:36.243Z,2.80
2022-10-03T08:06:41.798Z,1.90
2022-10-03T08:12:29.869Z,1.80
2022-10-03T08:15:26.491Z,1.70
2022-10-03T08:18:22.025Z,2.10
2022-10-03T08:21:00.381Z,1.80
2022-10-03T08:24:07.077Z,1.70
2022-10-03T08:26:51.604Z,2.60
2022-10-03T08:30:28.900Z,1.60
2022-10-03T08:33:23.090Z,1.60
2022-10-03T08:36:14.001Z,2.20
2022-10-03T08:39:10.050Z,2.00
2022-10-03T08:42:10.894Z,1.50
2022-10-03T08:45:33.013Z,1.60
2022-10-03T08:48:50.550Z,2.10
2022-10-03T08:51:49.019Z,1.30
2022-10-03T08:54:44.479Z,1.60
2022-10-03T08:57:45.404Z,1.90
2022-10-03T09:00:21.299Z,1.60
2022-10-03T09:03:35.249Z,1.90
2022-10-03T09:06:58.697Z,2.10
2022-10-03T09:10:26.445Z,2.00
2022-10-03T09:13:25.729Z,1.80
2022-10-03T09:16:39.226Z,1.60
2022-10-03T09:19:25.390Z,1.80
2022-10-03T09:22:22.491Z,1.80
2022-10-03T09:25:06.164Z,1.60
2022-10-03T09:27:57.212Z,2.10
2022-10-03T09:30:53.676Z,1.90
2022-10-03T09:33:45.894Z,1.30
2022-10-03T09:36:27.917Z,1.70
2022-10-03T09:39:12.711Z,1.60
2022-10-03T09:41:59.882Z,2.20
2022-10-03T09:44:57.042Z,1.90
2022-10-03T09:48:07.699Z,2.20
2022-10-03T09:51:01.419Z,1.50
2022-10-03T09:53:42.884Z,1.60
2022-10-03T09:56:47.293Z,2.50
2022-10-03T09:59:32.928Z,1.70
2022-10-03T10:02:37.782Z,1.90
2022-10-03T10:05:31.721Z,3.70
2022-10-03T10:08:13.518Z,2.30
2022-10-03T10:11:34.290Z,1.90
2022-10-03T10:14:19.857Z,2.60
2022-10-03T10:17:17.098Z,2.80
2022-10-03T10:20:24.189Z,2.00
2022-10-03T10:23:11.394Z,2.00
2022-10-03T10:26:29.591Z,2.60
2022-10-03T10:29:26.975Z,2.20
2022-10-03T10:33:08.136Z,2.10
2022-10-03T10:35:50.334Z,2.30
2022-10-03T10:38:39.707Z,1.60
2022-10-03T10:42:13.797Z,1.80
2022-10-03T10:44:56.751Z,1.70
2022-10-03T10:48:23.183Z,2.00
2022-10-03T10:51:09.351Z,2.20
2022-10-03T10:54:03.878Z,1.50
2022-10-03T10:57:22.267Z,1.70
2022-10-03T11:00:20.747Z,1.90
2022-10-03T11:03:24.511Z,1.20
2022-10-03T11:06:38.168Z,1.60
2022-10-03T11:09:42.067Z,3.30
2022-10-03T11:12:46.144Z,1.90
2022-10-03T11:15:53.505Z,2.20
2022-10-03T11:19:16.505Z,1.80
2022-10-03T11:22:08.065Z,2.30
2022-10-03T11:25:02.707Z,1.80
2022-10-03T11:28:09.172Z,2.30
2022-10-03T11:30:52.484Z,1.60
2022-10-03T11:34:10.715Z,1.70
2022-10-03T11:37:03.092Z,1.70
2022-10-03T11:39:38.877Z,2.20
2022-10-03T11:42:20.212Z,2.10
2022-10-03T11:44:58.667Z,2.60
2022-10-03T11:47:45.445Z,2.70
2022-10-03T11:50:27.166Z,3.80
2022-10-03T11:53:11.768Z,3.90
2022-10-03T11:55:55.225Z,3.00
2022-10-03T11:58:33.430Z,2.60
2022-10-03T12:01:57.840Z,2.40
2022-10-03T12:04:50.919Z,2.30
2022-10-03T12:11:16.852Z,6.40
2022-10-03T12:14:24.816Z,4.10
2022-10-03T12:17:15.477Z,3.10
2022-10-03T12:20:29.745Z,5.10
2022-10-03T12:23:30.912Z,3.80
2022-10-03T12:26:02.477Z,3.60
2022-10-03T12:28:44.530Z,3.90
2022-10-03T12:31:37.033Z,3.80
2022-10-03T12:34:37.985Z,3.10
2022-10-03T12:37:36.727Z,2.90
2022-10-03T12:40:51.536Z,2.90
2022-10-03T12:44:09.679Z,3.10
2022-10-03T12:47:08.664Z,2.40
2022-10-03T12:50:07.820Z,2.80
2022-10-03T12:53:02.284Z,2.40
2022-10-03T12:55:33.291Z,2.40
2022-10-03T12:58:39.372Z,2.20
2022-10-03T13:01:55.582Z,2.00
2022-10-03T13:04:41.254Z,1.90
2022-10-03T13:07:47.529Z,1.80
2022-10-03T13:10:55.280Z,1.30
2022-10-03T13:14:23.140Z,1.50
2022-10-03T13:17:18.678Z,1.10
2022-10-03T13:19:54.609Z,1.40
2022-10-03T13:22:37.087Z,1.30
2022-10-03T13:28:11.868Z,1.50
2022-10-03T13:30:58.117Z,1.20
2022-10-03T13:33:32.552Z,1.30
2022-10-03T13:36:14.336Z,1.20
2022-10-03T13:38:57.600Z,1.40
2022-10-03T13:41:59.208Z,1.10
2022-10-03T13:44:36.600Z,1.30
2022-10-03T13:47:19.192Z,1.80
2022-10-03T13:50:00.860Z,1.70
2022-10-03T13:52:44.937Z,1.60
2022-10-03T13:55:25.955Z,1.50
2022-10-03T13:58:21.113Z,1.50
2022-10-03T14:01:13.117Z,2.00
2022-10-03T14:04:22.298Z,1.90
2022-10-03T14:07:20.615Z,1.80
2022-10-03T14:10:05.571Z,1.90
2022-10-03T14:13:10.084Z,1.70
2022-10-03T14:16:12.827Z,1.80
2022-10-03T14:18:51.119Z,1.90
2022-10-03T14:22:21.879Z,2.10
2022-10-03T14:25:20.912Z,2.10
2022-10-03T14:27:54.142Z,2.00
2022-10-03T14:31:04.722Z,2.70
2022-10-03T14:33:56.065Z,2.30
2022-10-03T14:36:48.034Z,2.10
2022-10-03T14:39:32.585Z,2.10
2022-10-03T14:43:06.395Z,2.40
2022-10-03T14:45:40.998Z,2.70
2022-10-03T14:48:21.611Z,2.50
2022-10-03T14:50:56.724Z,2.50
2022-10-03T14:53:29.117Z,2.80
2022-10-03T14:56:05.787Z,2.30
2022-10-03T14:58:44.644Z,3.10
2022-10-03T15:02:01.903Z,2.30
2022-10-03T15:05:05.649Z,2.30
2022-10-03T15:07:37.368Z,2.40
2022-10-03T15:10:11.775Z,2.60
2022-10-03T15:12:42.335Z,2.40
2022-10-03T15:15:20.494Z,2.50
2022-10-03T15:17:53.895Z,2.40
2022-10-03T15:20:26.398Z,2.10
2022-10-03T15:22:56.566Z,2.40
2022-10-03T15:25:35.078Z,2.30
2022-10-03T15:28:22.709Z,2.00
2022-10-03T15:31:13.805Z,2.10
2022-10-03T15:33:42.271Z,2.20
2022-10-03T15:36:24.934Z,2.00
2022-10-03T15:38:54.902Z,1.80
2022-10-03T15:41:42.680Z,1.80
2022-10-03T15:44:49.559Z,2.00
2022-10-03T15:47:34.440Z,2.00
2022-10-03T15:50:32.780Z,2.30
2022-10-03T15:53:36.247Z,2.50
2022-10-03T15:56:14.603Z,2.20
2022-10-03T15:58:56.149Z,2.00
2022-10-03T16:01:27.228Z,2.30
2022-10-03T16:04:14.482Z,2.20
2022-10-03T16:07:10.708Z,2.90
2022-10-03T16:10:27.901Z,2.10
2022-10-03T16:13:19.838Z,2.60
2022-10-03T16:16:08.292Z,2.30
2022-10-03T16:18:55.686Z,3.00
2022-10-03T16:21:42.817Z,2.50
2022-10-03T16:24:40.409Z,2.10
2022-10-03T16:27:29.080Z,2.80
2022-10-03T16:30:11.032Z,2.30
2022-10-03T16:32:44.491Z,2.10
2022-10-03T16:35:35.073Z,2.20
2022-10-03T16:38:05.999Z,2.20
2022-10-03T16:40:33.856Z,2.30
2022-10-03T16:43:08.982Z,2.30
2022-10-03T16:45:44.010Z,2.50
2022-10-03T16:48:42.493Z,2.50
2022-10-03T16:51:25.455Z,2.40
2022-10-03T16:53:54.001Z,2.40
2022-10-03T16:56:36.554Z,2.50
2022-10-03T16:59:11.472Z,2.40
2022-10-03T17:01:50.625Z,2.50
2022-10-03T17:04:32.923Z,2.70
2022-10-03T17:07:03.017Z,2.90
2022-10-03T17:09:50.505Z,2.90
2022-10-03T17:12:38.136Z,3.00
2022-10-03T17:15:09.437Z,2.60
2022-10-03T17:18:01.004Z,2.90
2022-10-03T17:20:41.456Z,3.00
2022-10-03T17:23:38.405Z,2.80
2022-10-03T17:26:11.400Z,3.40
2022-10-03T17:29:04.117Z,3.10
2022-10-03T17:32:05.104Z,3.20
2022-10-03T17:34:49.655Z,2.70
2022-10-03T17:37:56.537Z,3.30
2022-10-03T17:40:55.967Z,3.30
2022-10-03T17:43:44.415Z,3.40
2022-10-03T17:46:29.527Z,4.30
2022-10-03T17:49:24.700Z,3.70
2022-10-03T17:51:52.672Z,4.70
2022-10-03T17:54:52.853Z,3.90
2022-10-03T17:57:36.431Z,5.30
2022-10-03T18:00:35.353Z,5.30
2022-10-03T18:03:10.369Z,5.40
2022-10-03T18:05:46.017Z,5.70
2022-10-03T18:08:18.477Z,5.60
2022-10-03T18:10:55.469Z,5.50
2022-10-03T18:13:30.710Z,5.70
2022-10-03T18:24:51.511Z,5.40
2022-10-03T18:27:50.973Z,6.50
2022-10-03T18:30:49.473Z,6.60
2022-10-03T18:33:22.802Z,5.90
2022-10-03T18:35:50.171Z,5.70
2022-10-03T18:38:29.093Z,4.90
2022-10-03T18:41:00.449Z,5.30
2022-10-03T18:43:58.025Z,4.90
2022-10-03T18:46:42.538Z,5.60
2022-10-03T18:49:34.496Z,5.60
2022-10-03T18:52:25.304Z,6.50
2022-10-03T18:55:04.793Z,5.00
2022-10-03T18:58:00.063Z,5.30
2022-10-03T19:00:30.610Z,5.20
2022-10-03T19:03:19.129Z,4.10
2022-10-03T19:06:07.778Z,4.60
2022-10-03T19:08:57.872Z,4.80
2022-10-03T19:11:41.644Z,4.30
2022-10-03T19:14:58.506Z,4.40
2022-10-03T19:17:55.992Z,4.30
2022-10-03T19:20:35.925Z,4.60
2022-10-03T19:23:13.614Z,3.50
2022-10-03T19:25:43.169Z,3.50
2022-10-03T19:28:22.928Z,3.40
2022-10-03T19:31:35.988Z,3.20
2022-10-03T19:34:21.874Z,3.50
2022-10-03T19:36:51.206Z,3.70
2022-10-03T19:39:20.378Z,3.20
2022-10-03T19:42:18.231Z,3.20
2022-10-03T19:44:45.751Z,3.40
2022-10-03T19:47:36.212Z,3.50
2022-10-03T19:50:18.812Z,3.20
2022-10-03T19:52:47.584Z,3.20
2022-10-03T19:55:38.625Z,2.70
2022-10-03T19:58:24.128Z,3.10
2022-10-03T20:00:58.372Z,3.00
2022-10-03T20:03:54.245Z,3.60
2022-10-03T20:06:40.505Z,3.70
2022-10-03T20:09:30.829Z,4.00
2022-10-03T20:12:05.422Z,3.30
2022-10-03T20:15:30.019Z,3.20
2022-10-03T20:19:25.043Z,3.90
2022-10-03T20:22:07.434Z,3.20
2022-10-03T20:24:46.825Z,3.90
2022-10-03T20:27:45.597Z,3.30
2022-10-03T20:31:04.453Z,3.00
2022-10-03T20:33:36.711Z,3.40
2022-10-03T20:36:14.716Z,3.10
2022-10-03T20:39:47.226Z,3.80
2022-10-03T20:42:53.350Z,3.20
2022-10-03T20:45:43.192Z,3.00
2022-10-03T20:49:09.740Z,3.10
2022-10-03T20:52:10.291Z,2.90
2022-10-03T20:55:09.593Z,2.80
2022-10-03T20:58:19.564Z,3.40
2022-10-03T21:01:06.342Z,3.00
2022-10-03T21:03:42.789Z,3.20
2022-10-03T21:06:32.323Z,2.70
2022-10-03T21:09:00.679Z,3.20
2022-10-03T21:11:30.504Z,3.70
2022-10-03T21:14:14.661Z,3.70
2022-10-03T21:16:47.916Z,2.90
2022-10-03T21:19:34.441Z,3.00
2022-10-03T21:22:03.839Z,3.70
2022-10-03T21:25:01.888Z,2.70
2022-10-03T21:27:28.668Z,3.10
2022-10-03T21:30:03.144Z,2.90
2022-10-03T21:32:41.469Z,2.70
2022-10-03T21:35:27.346Z,3.40
2022-10-03T21:38:27.870Z,2.70
2022-10-03T21:41:07.110Z,3.20
2022-10-03T21:44:01.551Z,2.90
2022-10-03T21:46:57.498Z,3.00
2022-10-03T21:49:54.504Z,3.60
2022-10-03T21:52:30.109Z,2.50
2022-10-03T21:55:51.367Z,2.60
2022-10-03T21:59:05.313Z,2.70
2022-10-03T22:01:40.350Z,3.30
2022-10-03T22:05:01.541Z,3.10
2022-10-03T22:07:31.048Z,2.80
2022-10-03T22:09:57.449Z,3.40
2022-10-03T22:12:27.668Z,3.60
2022-10-03T22:15:09.618Z,3.20
2022-10-03T22:17:59.355Z,3.10
2022-10-03T22:20:30.020Z,3.10
2022-10-03T22:24:01.378Z,2.60
2022-10-03T22:27:01.951Z,2.90
2022-10-03T22:29:47.665Z,2.90
2022-10-03T22:32:49.237Z,2.50
2022-10-03T22:35:32.326Z,2.90
2022-10-03T22:37:59.430Z,3.30
2022-10-03T22:40:29.939Z,2.60
2022-10-03T22:43:09.692Z,2.60
2022-10-03T22:45:40.839Z,2.80
2022-10-03T22:48:13.610Z,2.20
2022-10-03T22:53:11.034Z,2.40
2022-10-03T22:55:42.781Z,3.30
2022-10-03T22:58:11.578Z,3.30
2022-10-03T23:00:38.205Z,3.10
2022-10-03T23:03:19.748Z,2.70
2022-10-03T23:06:22.344Z,2.10
2022-10-03T23:09:23.183Z,2.90
2022-10-03T23:11:54.728Z,3.20
2022-10-03T23:14:27.969Z,2.90
2022-10-03T23:17:38.449Z,2.40
2022-10-03T23:20:28.265Z,2.30
2022-10-03T23:23:01.300Z,2.70
2022-10-03T23:25:55.248Z,3.00
2022-10-03T23:29:10.759Z,2.60
2022-10-03T23:32:09.697Z,3.00
2022-10-03T23:34:47.852Z,2.70
2022-10-03T23:37:17.746Z,2.50
2022-10-03T23:39:53.836Z,2.60
2022-10-03T23:42:32.553Z,2.50
2022-10-03T23:45:10.253Z,2.40
2022-10-03T23:48:01.788Z,2.00
2022-10-03T23:50:46.805Z,2.40
2022-10-03T23:53:43.265Z,2.30
2022-10-03T23:56:20.668Z,3.70
2022-10-03T23:59:02.376Z,2.60
